Celebrity Reflection — 9HA3047 — position and weather

sailwx.info

Track history (hours):
 
Tides and Currents Weather Stations Pressure Air Temp Water Temp Dewpoint Dewpoint Depression Visibility Wind Speed Wind Dir Waves Ship Positions

Celebrity Reflection

Last reported at 2019-Aug-20 09:59 UTC. Time now 2019-Aug-20 10:08 UTC.
Position N 53°24' W 003°00'.

Length 319 m; draft 8.6 m.

Type: Passenger vessel. MMSI: 229074000.

Date/timePositionNaut miles runAvg speedWind from/ knotsBaromVisibWave heightAir tempDewpointWater temp
2019-Aug-20 09:59N 53°24' W 003°00'0 0.0
2019-Aug-20 09:29N 53°24' W 003°00'0 0.0
2019-Aug-20 08:59N 53°24' W 003°00'0 0.0
2019-Aug-20 08:27N 53°24' W 003°00'0 0.0
2019-Aug-20 07:59N 53°24' W 003°00'0 0.0
2019-Aug-20 07:29N 53°24' W 003°00'0 0.0
2019-Aug-20 06:59N 53°24' W 003°00'0 0.0
2019-Aug-20 06:29N 53°24' W 003°00'0 0.9
2019-Aug-20 06:00N 53°24' W 003°00'034.4 280 / 101017.010.8 15.011.518.0
2019-Aug-20 05:59N 53°24' W 003°00'0 0.0
2019-Aug-20 05:30N 53°24' W 003°00'0 0.0
2019-Aug-20 05:00N 53°24' W 003°00'0 0.2
2019-Aug-20 04:30N 53°24' W 003°00'3 5.1
2019-Aug-20 04:00N 53°27' W 003°02'611.7
2019-Aug-20 03:30N 53°32' W 003°08'612.0
2019-Aug-20 03:00N 53°31' W 003°18'510.3
2019-Aug-20 02:31N 53°32' W 003°26'714.4
2019-Aug-20 02:00N 53°32' W 003°39'713.7
2019-Aug-20 01:30N 53°34' W 003°49'714.5
2019-Aug-20 01:00N 53°38' W 003°59'714.5
2019-Aug-20 00:30N 53°43' W 004°09'714.7
2019-Aug-20 00:00N 53°47' W 004°19'714.8
2019-Aug-19 23:30N 53°51' W 004°30'714.8
2019-Aug-19 23:00N 53°55' W 004°40'3226.0
2019-Aug-19 23:00N 53°54' W 004°36'2322.9 260 / 201013.027.0 15.015.016.0
2019-Aug-19 22:00N 54°11' W 005°01'121269.5
2019-Aug-19 22:00N 54°00' W 004°54'2346.2 260 / 221013.0 0.3 14.0 5.6
2019-Aug-19 21:30N 54°21' W 005°09'1122.6
2019-Aug-19 21:00N 54°31' W 005°16'1122.4
2019-Aug-19 20:30N 54°42' W 005°24'918.7
2019-Aug-19 20:00N 54°43' W 005°40'612.7
2019-Aug-19 19:30N 54°40' W 005°50'3 4.0
2019-Aug-19 18:38N 54°38' W 005°53'0 0.0
2019-Aug-19 18:23N 54°38' W 005°53'0 0.0
2019-Aug-19 17:59N 54°38' W 005°53'0 0.0
2019-Aug-19 17:20N 54°38' W 005°53'0 0.0
2019-Aug-19 16:47N 54°38' W 005°53'0 0.0
2019-Aug-19 16:28N 54°38' W 005°53'3 7.1
2019-Aug-19 16:00N 54°36' W 005°48'377.3 270 / 201009.010.8 17.010.016.0
2019-Aug-19 15:57N 54°38' W 005°53'0 0.0
2019-Aug-19 15:30N 54°38' W 005°53'0 0.0
2019-Aug-19 14:58N 54°38' W 005°53'0 0.0
2019-Aug-19 14:07N 54°38' W 005°53'0 0.0
2019-Aug-19 13:37N 54°38' W 005°53'0 0.0
2019-Aug-19 13:19N 54°38' W 005°53'0 0.0
2019-Aug-19 12:54N 54°38' W 005°53'0 0.0
2019-Aug-19 12:23N 54°38' W 005°53'3 8.5
2019-Aug-19 12:00N 54°36' W 005°48'355.6 270 / 281007.010.8 17.017.016.0
2019-Aug-19 11:56N 54°38' W 005°53'0 0.0
2019-Aug-19 11:29N 54°38' W 005°53'0 0.0
2019-Aug-19 10:59N 54°38' W 005°53'0 0.0
2019-Aug-19 10:28N 54°38' W 005°53'3 7.0
2019-Aug-19 10:00N 54°36' W 005°48'327.8 270 / 121015.0 0.3 14.0 5.6
2019-Aug-19 09:52N 54°38' W 005°53'0 0.0
2019-Aug-19 09:30N 54°38' W 005°53'0 0.0
2019-Aug-19 08:53N 54°38' W 005°53'0 0.0
2019-Aug-19 08:26N 54°38' W 005°53'0 0.0
2019-Aug-19 07:07N 54°38' W 005°53'0 0.0
2019-Aug-19 05:55N 54°38' W 005°53'0 0.0
2019-Aug-19 05:15N 54°38' W 005°53'1 2.4
2019-Aug-19 05:00N 54°38' W 005°53'5 9.7
2019-Aug-19 04:30N 54°41' W 005°47'611.4
2019-Aug-19 04:00N 54°44' W 005°38'713.1
2019-Aug-19 03:30N 54°50' W 005°33'713.4
2019-Aug-19 03:00N 54°56' W 005°29'917.5
2019-Aug-19 02:30N 55°04' W 005°22'1018.8
2019-Aug-19 02:00N 55°12' W 005°12'238.9 260 / 341000.010.8 15.015.016.0
2019-Aug-19 01:56N 55°14' W 005°14'818.9
2019-Aug-19 01:29N 55°22' W 005°08'1019.3
2019-Aug-19 01:00N 55°30' W 005°00'1019.8
2019-Aug-19 00:29N 55°40' W 004°60'817.5
2019-Aug-19 00:00N 55°49' W 004°58'714.2
2019-Aug-18 23:30N 55°55' W 004°55'611.3
2019-Aug-18 23:00N 55°58' W 004°46'0 0.8
2019-Aug-18 22:29N 55°57' W 004°46'0 0.0
2019-Aug-18 21:59N 55°57' W 004°46'0 0.0
2019-Aug-18 21:29N 55°57' W 004°46'4 8.3
2019-Aug-18 21:00N 55°54' W 004°42'4278.5 250 / 8997.0 0.3 16.0 8.2
2019-Aug-18 20:59N 55°57' W 004°46'0 0.0
2019-Aug-18 20:29N 55°57' W 004°46'0 0.0
2019-Aug-18 19:56N 55°57' W 004°46'0 0.0
2019-Aug-18 19:29N 55°57' W 004°46'0 0.0
2019-Aug-18 18:59N 55°57' W 004°46'0 0.0
2019-Aug-18 18:27N 55°57' W 004°46'0 0.0
2019-Aug-18 18:00N 55°57' W 004°46'0 0.0
2019-Aug-18 17:30N 55°57' W 004°46'4 7.9
2019-Aug-18 17:00N 55°54' W 004°42'4188.1 250 / 21994.010.8 16.010.615.0
2019-Aug-18 16:58N 55°57' W 004°46'0 0.0
2019-Aug-18 16:30N 55°57' W 004°46'0 0.0
2019-Aug-18 16:00N 55°57' W 004°46'0 0.0
2019-Aug-18 15:26N 55°57' W 004°46'0 0.0
2019-Aug-18 14:59N 55°57' W 004°46'0 0.0
2019-Aug-18 14:26N 55°57' W 004°46'0 0.0
2019-Aug-18 13:59N 55°57' W 004°46'0 0.0
2019-Aug-18 13:26N 55°57' W 004°46'0 0.0
2019-Aug-18 12:56N 55°57' W 004°46'0 0.0
2019-Aug-18 12:28N 55°57' W 004°46'0 0.0
2019-Aug-18 11:58N 55°57' W 004°46'0 0.0
2019-Aug-18 11:28N 55°57' W 004°46'0 0.0
2019-Aug-18 11:00N 55°57' W 004°46'4353.2
2019-Aug-18 11:00N 55°54' W 004°42'4 7.9 230 / 28990.010.8 16.016.014.0
2019-Aug-18 10:29N 55°57' W 004°46'4 8.1
2019-Aug-18 10:00N 55°54' W 004°42'471.7 210 / 24989.0 0.3 14.010.2
2019-Aug-18 09:56N 55°57' W 004°46'0 0.0
2019-Aug-18 09:29N 55°57' W 004°46'0 0.0
2019-Aug-18 08:59N 55°57' W 004°46'0 0.0
2019-Aug-18 08:29N 55°57' W 004°46'0 0.0
2019-Aug-18 07:59N 55°57' W 004°46'0 0.0
2019-Aug-18 06:56N 55°57' W 004°46'0 0.0
2019-Aug-18 06:28N 55°57' W 004°46'0 0.0
2019-Aug-18 06:00N 55°57' W 004°46'0 0.5
2019-Aug-18 05:30N 55°58' W 004°46'3 6.4
2019-Aug-18 05:01N 55°58' W 004°52'815.8
2019-Aug-18 04:31N 55°50' W 004°57'714.1
2019-Aug-18 04:01N 55°43' W 004°59'4 7.2
2019-Aug-18 03:30N 55°40' W 004°60'3 6.9
2019-Aug-18 03:00N 55°36' W 004°60'3 6.2
2019-Aug-18 02:30N 55°33' W 004°58'4 6.2
2019-Aug-18 01:56N 55°30' W 004°55'4 4.9
2019-Aug-18 01:10N 55°27' W 004°57'5 5.9
2019-Aug-18 00:19N 55°24' W 005°05'3 6.3
2019-Aug-17 23:52N 55°23' W 005°09'4 5.7
2019-Aug-17 23:10N 55°21' W 005°15'318.1
2019-Aug-17 23:00N 55°18' W 005°12'9 9.1 190 / 32992.010.8 15.015.016.0
2019-Aug-17 22:00N 55°12' W 005°24'6 8.0 190 / 34992.0 0.3 14.0 5.7
2019-Aug-17 21:14N 55°15' W 005°33'3 8.2
2019-Aug-17 20:49N 55°14' W 005°38'411.3
2019-Aug-17 20:30N 55°14' W 005°44'5 9.8
2019-Aug-17 20:00N 55°13' W 005°53'712.3
2019-Aug-17 19:27N 55°18' W 006°02'613.3
2019-Aug-17 19:00N 55°22' W 006°10'6379.6
2019-Aug-17 19:00N 55°18' W 006°18'713.5 190 / 25990.010.8 16.010.414.0
2019-Aug-17 18:30N 55°24' W 006°23'1515.1
2019-Aug-17 17:30N 55°34' W 006°43'714.2
2019-Aug-17 17:00N 55°39' W 006°53'713.6
2019-Aug-17 16:30N 55°44' W 006°59'713.4
2019-Aug-17 16:00N 55°51' W 007°03'4013.4
2019-Aug-17 13:00N 56°30' W 007°18'4314.4 210 / 42988.010.8 17.017.016.0
2019-Aug-17 10:00N 57°12' W 007°00'4614.7 210 / 28986.0 0.3 14.0 3.0
2019-Aug-17 06:51N 57°55' W 006°28'515.7
2019-Aug-17 06:30N 57°57' W 006°19'816.6
2019-Aug-17 06:00N 58°03' W 006°07'815.4
2019-Aug-17 05:30N 58°09' W 005°57'815.9
2019-Aug-17 05:00N 58°15' W 005°47'816.0
2019-Aug-17 04:30N 58°20' W 005°37'815.6
2019-Aug-17 04:00N 58°26' W 005°27'816.5
2019-Aug-17 03:30N 58°32' W 005°16'816.7
2019-Aug-17 03:01N 58°38' W 005°05'261536.4
2019-Aug-17 03:00N 58°18' W 005°36'3369.2 160 / 16989.027.0
2019-Aug-17 02:31N 58°41' W 004°50'917.3
2019-Aug-17 02:00N 58°42' W 004°33'8673.1
2019-Aug-17 02:00N 58°42' W 004°18'1 1.2 170 / 10887.010.8 15.015.014.0
2019-Aug-17 01:30N 58°42' W 004°17'816.6
2019-Aug-17 01:00N 58°42' W 004°01'917.6
2019-Aug-17 00:30N 58°42' W 003°44'917.4
2019-Aug-17 00:00N 58°43' W 003°28'816.3
2019-Aug-16 23:30N 58°43' W 003°12'612.4
2019-Aug-16 23:01N 58°41' W 003°00'714.1
2019-Aug-16 22:30N 58°34' W 002°59'816.1
2019-Aug-16 22:00N 58°26' W 002°59'2016.5
2019-Aug-16 20:49N 58°09' W 003°17'1618.7
2019-Aug-16 20:00N 57°54' W 003°24'29 3.6 250 / 7989.0 0.3 19.0 4.7
2019-Aug-16 12:00N 57°36' W 004°06'0 0.0 170 / 15991.010.8 19.019.016.0
2019-Aug-16 10:00N 57°36' W 004°06'0 0.0 150 / 12992.0 0.3 17.0 7.1
2019-Aug-16 06:00N 57°36' W 004°06'35771.5 170 / 7998.010.8 15.012.016.0
2019-Aug-16 01:00N 51°42' W 002°42'362190.1 170 / 241003.0 5.4 15.015.016.0
2019-Aug-15 23:05N 57°43' W 001°54'113.3
2019-Aug-15 23:00N 57°42' W 001°53'3183.0
2019-Aug-15 23:00N 57°42' W 001°48'510.9 180 / 161007.010.8 15.015.014.0
2019-Aug-15 22:30N 57°37' W 001°45'713.3
2019-Aug-15 22:00N 57°31' W 001°39'1088656.0
2019-Aug-15 22:00N 57°30' E 001°42'105217.4 150 / 171006.0 0.3 16.0 2.9
2019-Aug-15 21:30N 57°25' W 001°34'713.7
2019-Aug-15 21:00N 57°19' W 001°28'813.8
2019-Aug-15 20:28N 57°12' W 001°22'714.2
2019-Aug-15 20:00N 57°06' W 001°16'5418.1
2019-Aug-15 17:00N 56°18' W 000°30'8514.2 310 / 161006.010.8 17.010.717.0
2019-Aug-15 11:00N 55°00' E 000°30'5120.8 270 / 341002.010.8 18.018.019.0
2019-Aug-15 08:34N 54°16' E 001°14'117.5
2019-Aug-15 08:30N 54°15' E 001°15'917.4
2019-Aug-15 08:00N 54°08' E 001°22'917.0
2019-Aug-15 07:30N 54°00' E 001°28'816.8
2019-Aug-15 07:00N 53°53' E 001°34'714.6
2019-Aug-15 06:30N 53°48' E 001°44'815.4
2019-Aug-15 06:00N 53°45' E 001°56'2512.5
2019-Aug-15 04:00N 53°30' E 002°30'3118.6 240 / 331004.027.0
2019-Aug-15 02:20N 52°60' E 002°40'819.3
2019-Aug-15 01:56N 52°52' E 002°40'918.8
2019-Aug-15 01:29N 52°43' E 002°40'53108.2
2019-Aug-15 01:00N 53°36' E 002°36'71155.6 230 / 211004.0 5.4 18.018.019.0
2019-Aug-15 00:32N 52°25' E 002°41'118.6
2019-Aug-15 00:30N 52°25' E 002°41'3120.5
2019-Aug-14 23:00N 51°54' E 002°36'1011.9 220 / 301008.010.8 18.018.019.0
2019-Aug-14 22:07N 51°44' E 002°33'217.6
2019-Aug-14 22:00N 51°42' E 002°31'8516.8
2019-Aug-14 22:00N 51°36' E 002°24'2 3.1 210 / 301008.0 0.3 16.016.0
2019-Aug-14 21:30N 51°36' E 002°22'816.6
2019-Aug-14 21:00N 51°30' E 002°13'816.3
2019-Aug-14 20:30N 51°24' E 002°04'816.1
2019-Aug-14 20:00N 51°18' E 001°55'816.0
2019-Aug-14 19:30N 51°12' E 001°47'815.8
2019-Aug-14 19:00N 51°05' E 001°39'815.0
2019-Aug-14 18:30N 51°02' E 001°29'713.9
2019-Aug-14 18:00N 51°06' E 001°21'1 1.6
2019-Aug-14 17:30N 51°07' E 001°19'0 0.0
2019-Aug-14 16:53N 51°07' E 001°19'0 0.0
2019-Aug-14 16:28N 51°07' E 001°19'0 0.0
2019-Aug-14 16:00N 51°07' E 001°19'1139.2
2019-Aug-14 16:00N 51°06' E 001°18'1 2.4 190 / 251010.010.8 18.015.319.0
2019-Aug-14 15:30N 51°07' E 001°19'0 0.0
2019-Aug-14 15:00N 51°07' E 001°19'0 0.0
2019-Aug-14 14:29N 51°07' E 001°19'0 0.0
2019-Aug-14 13:58N 51°07' E 001°19'0 0.0
2019-Aug-14 13:30N 51°07' E 001°19'0 0.0
2019-Aug-14 13:00N 51°07' E 001°19'0 0.0
2019-Aug-14 12:25N 51°07' E 001°19'0 0.0
2019-Aug-14 12:00N 51°07' E 001°19'0 0.0
2019-Aug-14 11:30N 51°07' E 001°19'1 2.3
2019-Aug-14 11:00N 51°06' E 001°18'115.9 190 / 301013.0 5.4 18.018.019.0
2019-Aug-14 10:55N 51°07' E 001°19'0 0.0
2019-Aug-14 10:28N 51°07' E 001°19'0 0.0
2019-Aug-14 09:55N 51°07' E 001°19'0 0.0
2019-Aug-14 09:28N 51°07' E 001°19'0 0.0
2019-Aug-14 08:58N 51°07' E 001°19'0 0.0
2019-Aug-14 08:22N 51°07' E 001°19'1 3.1
2019-Aug-14 08:00N 51°06' E 001°18'115.8 200 / 181015.0 0.3 16.010.4
2019-Aug-14 07:55N 51°07' E 001°19'0 0.0
2019-Aug-14 07:28N 51°07' E 001°19'0 0.0
2019-Aug-14 07:00N 51°07' E 001°19'0 0.0
2019-Aug-14 06:30N 51°07' E 001°19'0 0.0
2019-Aug-14 06:00N 51°07' E 001°19'0 0.2
2019-Aug-14 05:30N 51°07' E 001°20'4 7.0
2019-Aug-14 05:00N 51°08' E 001°25'611.6
2019-Aug-14 04:30N 51°08' E 001°34'713.1
2019-Aug-14 04:00N 51°12' E 001°42'10645.2
2019-Aug-14 04:00N 51°06' E 001°30'1633.5 210 / 161016.010.8 17.013.818.0
2019-Aug-14 03:30N 51°18' E 001°48'713.6
2019-Aug-14 03:00N 51°24' E 001°53'713.5
2019-Aug-14 02:30N 51°30' E 001°58'713.7
2019-Aug-14 02:00N 51°35' E 002°05'713.8
2019-Aug-14 01:30N 51°40' E 002°12'713.9
2019-Aug-14 01:00N 51°45' E 002°20'713.9
2019-Aug-14 00:30N 51°50' E 002°28'713.7
2019-Aug-14 00:00N 51°55' E 002°36'4265.9
2019-Aug-14 00:00N 51°54' E 002°42'612.0 240 / 251015.010.8 18.018.019.0
2019-Aug-13 23:28N 52°00' E 002°44'713.9
2019-Aug-13 23:00N 52°05' E 002°52'813.9
2019-Aug-13 22:27N 52°10' E 003°00'613.8
2019-Aug-13 22:00N 52°14' E 003°08'714.0
2019-Aug-13 21:30N 52°18' E 003°17'714.1
2019-Aug-13 21:00N 52°22' E 003°27'7417.0
2019-Aug-13 21:00N 52°18' E 003°18'1428.7 170 / 41015.0 0.3 16.0-0.5
2019-Aug-13 20:31N 52°25' E 003°37'714.3
2019-Aug-13 20:00N 52°29' E 003°48'714.0
2019-Aug-13 19:30N 52°31' E 003°58'714.6
2019-Aug-13 19:00N 52°31' E 004°10'714.6
2019-Aug-13 18:31N 52°30' E 004°22'612.5
2019-Aug-13 18:01N 52°28' E 004°32'4251.1
2019-Aug-13 18:00N 52°24' E 004°30'611.7 220 / 101009.027.0 17.0
2019-Aug-13 17:31N 52°28' E 004°36'0 0.5
2019-Aug-13 17:01N 52°28' E 004°37'2 4.3
2019-Aug-13 16:30N 52°27' E 004°40'4 7.4
2019-Aug-13 16:01N 52°26' E 004°46'4 7.4
2019-Aug-13 15:31N 52°25' E 004°52'3 5.8
2019-Aug-13 15:01N 52°23' E 004°55'0 0.1
2019-Aug-13 14:29N 52°23' E 004°55'0 0.0
2019-Aug-13 13:59N 52°23' E 004°55'0 0.0
2019-Aug-13 13:29N 52°23' E 004°55'0 0.0
2019-Aug-13 13:01N 52°23' E 004°55'0 0.0
2019-Aug-13 12:28N 52°23' E 004°55'5 9.9
2019-Aug-13 12:00N 52°18' E 004°54'5204.2 210 / 181015.010.8 17.017.020.0
2019-Aug-13 11:58N 52°23' E 004°55'0 0.0
2019-Aug-13 11:30N 52°23' E 004°55'0 0.0
2019-Aug-13 10:59N 52°23' E 004°55'0 0.0
2019-Aug-13 10:29N 52°23' E 004°55'0 0.0
2019-Aug-13 10:01N 52°23' E 004°55'0 0.0
2019-Aug-13 09:30N 52°23' E 004°55'0 0.0
2019-Aug-13 09:00N 52°23' E 004°55'0 0.0
2019-Aug-13 08:30N 52°23' E 004°55'0 0.0
2019-Aug-13 07:59N 52°23' E 004°55'0 0.0
2019-Aug-13 07:30N 52°23' E 004°55'0 0.0
2019-Aug-13 06:58N 52°23' E 004°55'0 0.0
2019-Aug-13 06:26N 52°23' E 004°55'510.6
2019-Aug-13 06:00N 52°18' E 004°54'5259.9 240 / 51014.0 0.3 18.0 5.8
2019-Aug-13 05:58N 52°23' E 004°55'0 0.0
2019-Aug-13 05:25N 52°23' E 004°55'0 0.0
2019-Aug-13 04:58N 52°23' E 004°55'1 1.1
2019-Aug-13 04:30N 52°23' E 004°56'1 2.9
2019-Aug-13 04:01N 52°24' E 004°54'4 7.6
2019-Aug-13 03:31N 52°25' E 004°48'4 8.4
2019-Aug-13 03:01N 52°27' E 004°42'4257.3
2019-Aug-13 03:00N 52°24' E 004°36'4 8.4 200 / 41014.010.8 15.013.222.0
2019-Aug-13 02:31N 52°28' E 004°37'1 1.4
2019-Aug-13 01:30N 52°28' E 004°35'611.2
2019-Aug-13 01:01N 52°29' E 004°25'3 5.0
2019-Aug-13 00:31N 52°30' E 004°22'1 3.0
2019-Aug-13 00:00N 52°30' E 004°24'2 5.0
2019-Aug-12 23:31N 52°29' E 004°21'4 7.9
2019-Aug-12 23:00N 52°29' E 004°14'611.0
2019-Aug-12 22:30N 52°32' E 004°07'612.8
2019-Aug-12 22:01N 52°38' E 004°03'713.1
2019-Aug-12 21:30N 52°45' E 004°00'5 9.0
2019-Aug-12 21:00N 52°42' E 003°54'3022.0 230 / 101003.0 0.3 15.0 4.3
2019-Aug-12 19:39N 53°07' E 004°20'318.7
2019-Aug-12 19:30N 53°09' E 004°23'6819.3
2019-Aug-12 16:00N 54°12' E 005°06'3517.4 290 / 211009.010.8 17.015.319.0
2019-Aug-12 14:00N 54°42' E 005°36'13819.7 240 / 221009.010.8 17.017.018.0
2019-Aug-12 07:00N 56°42' E 007°36'1714.9 230 / 341003.0 0.3 15.013.2
2019-Aug-12 05:51N 56°57' E 007°51'617.8
2019-Aug-12 05:30N 57°02' E 007°57'917.9
2019-Aug-12 05:00N 57°09' E 008°07'41321.9
2019-Aug-12 05:00N 57°12' E 008°12'611.0 200 / 301003.010.8 18.016.318.0
2019-Aug-12 04:29N 57°16' E 008°18'918.0
2019-Aug-12 04:00N 57°21' E 008°33'918.3
2019-Aug-12 03:30N 57°25' E 008°48'1018.4
2019-Aug-12 02:59N 57°29' E 009°03'918.3
2019-Aug-12 02:30N 57°32' E 009°19'918.4
2019-Aug-12 02:00N 57°36' E 009°34'1018.4
2019-Aug-12 01:28N 57°41' E 009°51'918.6
2019-Aug-12 01:00N 57°44' E 010°06'2141.3
2019-Aug-12 01:00N 57°42' E 010°06'1019.7 180 / 351005.010.8 17.017.018.0
2019-Aug-12 00:30N 57°47' E 010°22'917.5
2019-Aug-12 00:00N 57°49' E 010°38'918.1
2019-Aug-11 23:30N 57°45' E 010°54'1020.7
2019-Aug-11 23:00N 57°39' E 011°08'1020.9
2019-Aug-11 22:30N 57°31' E 011°21'1121.1
2019-Aug-11 22:00N 57°22' E 011°32'1121.6
2019-Aug-11 21:30N 57°12' E 011°37'1121.4
2019-Aug-11 21:00N 57°01' E 011°44'6563.3
2019-Aug-11 21:00N 57°06' E 011°36'5522.3 230 / 271007.0 0.3 19.0 7.3
2019-Aug-11 18:32N 56°15' E 012°13'119.8
2019-Aug-11 18:30N 56°15' E 012°14'1019.3
2019-Aug-11 18:00N 56°09' E 012°28'917.1
2019-Aug-11 17:30N 56°03' E 012°39'816.3
2019-Aug-11 17:00N 55°55' E 012°44'816.0
2019-Aug-11 16:30N 55°47' E 012°43'611.4
2019-Aug-11 16:00N 55°43' E 012°37'3165.3
2019-Aug-11 16:00N 55°42' E 012°42'3 6.3 250 / 161009.010.8 22.018.920.0
2019-Aug-11 15:28N 55°42' E 012°36'0 0.0
2019-Aug-11 14:58N 55°42' E 012°36'0 0.0
2019-Aug-11 14:28N 55°42' E 012°36'0 0.0
2019-Aug-11 14:00N 55°42' E 012°36'0 0.0
2019-Aug-11 13:30N 55°42' E 012°36'0 0.0
2019-Aug-11 12:59N 55°42' E 012°36'0 0.0
2019-Aug-11 12:28N 55°42' E 012°36'0 0.0
2019-Aug-11 12:00N 55°42' E 012°36'0 0.0
2019-Aug-11 11:30N 55°42' E 012°36'0 0.3
2019-Aug-11 11:00N 55°42' E 012°36'012.8 230 / 251009.010.8 21.021.019.0
2019-Aug-11 10:59N 55°42' E 012°36'0 0.0
2019-Aug-11 10:29N 55°42' E 012°36'0 0.0
2019-Aug-11 09:58N 55°42' E 012°36'0 0.0
2019-Aug-11 09:29N 55°42' E 012°36'0 0.0
2019-Aug-11 09:00N 55°42' E 012°36'0 0.0
2019-Aug-11 08:30N 55°42' E 012°36'0 0.0
2019-Aug-11 08:00N 55°42' E 012°36'0 9.3
2019-Aug-11 08:00N 55°42' E 012°36'0 0.3 250 / 141008.0 0.3 19.0 9.7
2019-Aug-11 07:30N 55°42' E 012°36'0 0.0
2019-Aug-11 07:00N 55°42' E 012°36'1 1.4
2019-Aug-11 06:30N 55°43' E 012°37'4 8.2
2019-Aug-11 06:00N 55°46' E 012°42'611.4
2019-Aug-11 05:30N 55°51' E 012°41'611.8
2019-Aug-11 05:00N 55°57' E 012°40'612.5
2019-Aug-11 04:30N 56°03' E 012°38'713.4
2019-Aug-11 03:59N 56°08' E 012°29'613.0
2019-Aug-11 03:30N 56°12' E 012°19'913.9
2019-Aug-11 02:51N 56°11' E 012°03'1314.7
2019-Aug-11 02:00N 56°06' E 011°42'4611.6 230 / 311005.010.8 20.020.021.0
2019-Aug-10 22:00N 55°27' E 010°56'1215.9
2019-Aug-10 21:16N 55°17' E 011°04'416.3
2019-Aug-10 21:00N 55°12' E 011°06'9883.7
2019-Aug-10 21:00N 55°18' E 011°18'1733.9 220 / 301006.0 0.3 21.0 7.6
2019-Aug-10 20:30N 55°04' E 011°02'816.2
2019-Aug-10 20:00N 54°57' E 010°57'918.5
2019-Aug-10 19:30N 54°48' E 010°52'917.5
2019-Aug-10 19:01N 54°40' E 010°60'1020.0
2019-Aug-10 18:31N 54°36' E 011°15'1020.3
2019-Aug-10 18:01N 54°30' E 011°30'1019.4
2019-Aug-10 17:31N 54°26' E 011°46'918.7
2019-Aug-10 17:00N 54°26' E 012°02'815.9
2019-Aug-10 16:30N 54°31' E 012°13'918.8
2019-Aug-10 16:01N 54°39' E 012°19'1615.5
2019-Aug-10 15:00N 54°48' E 012°42'1624.9 230 / 251006.010.8 22.018.920.0
2019-Aug-10 14:20N 54°53' E 013°09'3719.8
2019-Aug-10 12:27N 55°07' E 014°09'920.2
2019-Aug-10 12:00N 55°15' E 014°18'1719.9
2019-Aug-10 11:09N 55°27' E 014°38'320.0
2019-Aug-10 11:01N 55°29' E 014°42'3206.8
2019-Aug-10 11:00N 55°30' E 014°48'713.7 200 / 201005.010.8 21.021.020.0
2019-Aug-10 10:30N 55°33' E 014°58'1020.4
2019-Aug-10 10:01N 55°38' E 015°14'  
Track history (hours):
 
Tides and Currents Weather Stations Pressure Air Temp Water Temp Dewpoint Dewpoint Depression Visibility Wind Speed Wind Dir Waves Ship Positions

Celebrity Reflection

Last reported at 2019-Aug-20 09:59 UTC. Time now 2019-Aug-20 10:08 UTC.
Position N 53°24' W 003°00'.

Length 319 m; draft 8.6 m.

Type: Passenger vessel. MMSI: 229074000.

Date/timePositionNaut miles runAvg speedWind from/ knotsBaromVisibWave heightAir tempDewpointWater temp
2019-Aug-20 09:59N 53°24' W 003°00'0 0.0
2019-Aug-20 09:29N 53°24' W 003°00'0 0.0
2019-Aug-20 08:59N 53°24' W 003°00'0 0.0
2019-Aug-20 08:27N 53°24' W 003°00'0 0.0
2019-Aug-20 07:59N 53°24' W 003°00'0 0.0
2019-Aug-20 07:29N 53°24' W 003°00'0 0.0
2019-Aug-20 06:59N 53°24' W 003°00'0 0.0
2019-Aug-20 06:29N 53°24' W 003°00'0 0.9
2019-Aug-20 06:00N 53°24' W 003°00'034.4 280 / 101017.010.8 15.011.518.0
2019-Aug-20 05:59N 53°24' W 003°00'0 0.0
2019-Aug-20 05:30N 53°24' W 003°00'0 0.0
2019-Aug-20 05:00N 53°24' W 003°00'0 0.2
2019-Aug-20 04:30N 53°24' W 003°00'3 5.1
2019-Aug-20 04:00N 53°27' W 003°02'611.7
2019-Aug-20 03:30N 53°32' W 003°08'612.0
2019-Aug-20 03:00N 53°31' W 003°18'510.3
2019-Aug-20 02:31N 53°32' W 003°26'714.4
2019-Aug-20 02:00N 53°32' W 003°39'713.7
2019-Aug-20 01:30N 53°34' W 003°49'714.5
2019-Aug-20 01:00N 53°38' W 003°59'714.5
2019-Aug-20 00:30N 53°43' W 004°09'714.7
2019-Aug-20 00:00N 53°47' W 004°19'714.8
2019-Aug-19 23:30N 53°51' W 004°30'714.8
2019-Aug-19 23:00N 53°55' W 004°40'3226.0
2019-Aug-19 23:00N 53°54' W 004°36'2322.9 260 / 201013.027.0 15.015.016.0
2019-Aug-19 22:00N 54°11' W 005°01'121269.5
2019-Aug-19 22:00N 54°00' W 004°54'2346.2 260 / 221013.0 0.3 14.0 5.6
2019-Aug-19 21:30N 54°21' W 005°09'1122.6
2019-Aug-19 21:00N 54°31' W 005°16'1122.4
2019-Aug-19 20:30N 54°42' W 005°24'918.7
2019-Aug-19 20:00N 54°43' W 005°40'612.7
2019-Aug-19 19:30N 54°40' W 005°50'3 4.0
2019-Aug-19 18:38N 54°38' W 005°53'0 0.0
2019-Aug-19 18:23N 54°38' W 005°53'0 0.0
2019-Aug-19 17:59N 54°38' W 005°53'0 0.0
2019-Aug-19 17:20N 54°38' W 005°53'0 0.0
2019-Aug-19 16:47N 54°38' W 005°53'0 0.0
2019-Aug-19 16:28N 54°38' W 005°53'3 7.1
2019-Aug-19 16:00N 54°36' W 005°48'377.3 270 / 201009.010.8 17.010.016.0
2019-Aug-19 15:57N 54°38' W 005°53'0 0.0
2019-Aug-19 15:30N 54°38' W 005°53'0 0.0
2019-Aug-19 14:58N 54°38' W 005°53'0 0.0
2019-Aug-19 14:07N 54°38' W 005°53'0 0.0
2019-Aug-19 13:37N 54°38' W 005°53'0 0.0
2019-Aug-19 13:19N 54°38' W 005°53'0 0.0
2019-Aug-19 12:54N 54°38' W 005°53'0 0.0
2019-Aug-19 12:23N 54°38' W 005°53'3 8.5
2019-Aug-19 12:00N 54°36' W 005°48'355.6 270 / 281007.010.8 17.017.016.0
2019-Aug-19 11:56N 54°38' W 005°53'0 0.0
2019-Aug-19 11:29N 54°38' W 005°53'0 0.0
2019-Aug-19 10:59N 54°38' W 005°53'0 0.0
2019-Aug-19 10:28N 54°38' W 005°53'3 7.0
2019-Aug-19 10:00N 54°36' W 005°48'327.8 270 / 121015.0 0.3 14.0 5.6
2019-Aug-19 09:52N 54°38' W 005°53'0 0.0
2019-Aug-19 09:30N 54°38' W 005°53'0 0.0
2019-Aug-19 08:53N 54°38' W 005°53'0 0.0
2019-Aug-19 08:26N 54°38' W 005°53'0 0.0
2019-Aug-19 07:07N 54°38' W 005°53'0 0.0
2019-Aug-19 05:55N 54°38' W 005°53'0 0.0
2019-Aug-19 05:15N 54°38' W 005°53'1 2.4
2019-Aug-19 05:00N 54°38' W 005°53'5 9.7
2019-Aug-19 04:30N 54°41' W 005°47'611.4
2019-Aug-19 04:00N 54°44' W 005°38'713.1
2019-Aug-19 03:30N 54°50' W 005°33'713.4
2019-Aug-19 03:00N 54°56' W 005°29'917.5
2019-Aug-19 02:30N 55°04' W 005°22'1018.8
2019-Aug-19 02:00N 55°12' W 005°12'238.9 260 / 341000.010.8 15.015.016.0
2019-Aug-19 01:56N 55°14' W 005°14'818.9
2019-Aug-19 01:29N 55°22' W 005°08'1019.3
2019-Aug-19 01:00N 55°30' W 005°00'1019.8
2019-Aug-19 00:29N 55°40' W 004°60'817.5
2019-Aug-19 00:00N 55°49' W 004°58'714.2
2019-Aug-18 23:30N 55°55' W 004°55'611.3
2019-Aug-18 23:00N 55°58' W 004°46'0 0.8
2019-Aug-18 22:29N 55°57' W 004°46'0 0.0
2019-Aug-18 21:59N 55°57' W 004°46'0 0.0
2019-Aug-18 21:29N 55°57' W 004°46'4 8.3
2019-Aug-18 21:00N 55°54' W 004°42'4278.5 250 / 8997.0 0.3 16.0 8.2
2019-Aug-18 20:59N 55°57' W 004°46'0 0.0
2019-Aug-18 20:29N 55°57' W 004°46'0 0.0
2019-Aug-18 19:56N 55°57' W 004°46'0 0.0
2019-Aug-18 19:29N 55°57' W 004°46'0 0.0
2019-Aug-18 18:59N 55°57' W 004°46'0 0.0
2019-Aug-18 18:27N 55°57' W 004°46'0 0.0
2019-Aug-18 18:00N 55°57' W 004°46'0 0.0
2019-Aug-18 17:30N 55°57' W 004°46'4 7.9
2019-Aug-18 17:00N 55°54' W 004°42'4188.1 250 / 21994.010.8 16.010.615.0
2019-Aug-18 16:58N 55°57' W 004°46'0 0.0
2019-Aug-18 16:30N 55°57' W 004°46'0 0.0
2019-Aug-18 16:00N 55°57' W 004°46'0 0.0
2019-Aug-18 15:26N 55°57' W 004°46'0 0.0
2019-Aug-18 14:59N 55°57' W 004°46'0 0.0
2019-Aug-18 14:26N 55°57' W 004°46'0 0.0
2019-Aug-18 13:59N 55°57' W 004°46'0 0.0
2019-Aug-18 13:26N 55°57' W 004°46'0 0.0
2019-Aug-18 12:56N 55°57' W 004°46'0 0.0
2019-Aug-18 12:28N 55°57' W 004°46'0 0.0
2019-Aug-18 11:58N 55°57' W 004°46'0 0.0
2019-Aug-18 11:28N 55°57' W 004°46'0 0.0
2019-Aug-18 11:00N 55°57' W 004°46'4353.2
2019-Aug-18 11:00N 55°54' W 004°42'4 7.9 230 / 28990.010.8 16.016.014.0
2019-Aug-18 10:29N 55°57' W 004°46'4 8.1
2019-Aug-18 10:00N 55°54' W 004°42'471.7 210 / 24989.0 0.3 14.010.2
2019-Aug-18 09:56N 55°57' W 004°46'0 0.0
2019-Aug-18 09:29N 55°57' W 004°46'0 0.0
2019-Aug-18 08:59N 55°57' W 004°46'0 0.0
2019-Aug-18 08:29N 55°57' W 004°46'0 0.0
2019-Aug-18 07:59N 55°57' W 004°46'0 0.0
2019-Aug-18 06:56N 55°57' W 004°46'0 0.0
2019-Aug-18 06:28N 55°57' W 004°46'0 0.0
2019-Aug-18 06:00N 55°57' W 004°46'0 0.5
2019-Aug-18 05:30N 55°58' W 004°46'3 6.4
2019-Aug-18 05:01N 55°58' W 004°52'815.8
2019-Aug-18 04:31N 55°50' W 004°57'714.1
2019-Aug-18 04:01N 55°43' W 004°59'4 7.2
2019-Aug-18 03:30N 55°40' W 004°60'3 6.9
2019-Aug-18 03:00N 55°36' W 004°60'3 6.2
2019-Aug-18 02:30N 55°33' W 004°58'4 6.2
2019-Aug-18 01:56N 55°30' W 004°55'4 4.9
2019-Aug-18 01:10N 55°27' W 004°57'5 5.9
2019-Aug-18 00:19N 55°24' W 005°05'3 6.3
2019-Aug-17 23:52N 55°23' W 005°09'4 5.7
2019-Aug-17 23:10N 55°21' W 005°15'318.1
2019-Aug-17 23:00N 55°18' W 005°12'9 9.1 190 / 32992.010.8 15.015.016.0
2019-Aug-17 22:00N 55°12' W 005°24'6 8.0 190 / 34992.0 0.3 14.0 5.7
2019-Aug-17 21:14N 55°15' W 005°33'3 8.2
2019-Aug-17 20:49N 55°14' W 005°38'411.3
2019-Aug-17 20:30N 55°14' W 005°44'5 9.8
2019-Aug-17 20:00N 55°13' W 005°53'712.3
2019-Aug-17 19:27N 55°18' W 006°02'613.3
2019-Aug-17 19:00N 55°22' W 006°10'6379.6
2019-Aug-17 19:00N 55°18' W 006°18'713.5 190 / 25990.010.8 16.010.414.0
2019-Aug-17 18:30N 55°24' W 006°23'1515.1
2019-Aug-17 17:30N 55°34' W 006°43'714.2
2019-Aug-17 17:00N 55°39' W 006°53'713.6
2019-Aug-17 16:30N 55°44' W 006°59'713.4
2019-Aug-17 16:00N 55°51' W 007°03'4013.4
2019-Aug-17 13:00N 56°30' W 007°18'4314.4 210 / 42988.010.8 17.017.016.0
2019-Aug-17 10:00N 57°12' W 007°00'4614.7 210 / 28986.0 0.3 14.0 3.0
2019-Aug-17 06:51N 57°55' W 006°28'515.7
2019-Aug-17 06:30N 57°57' W 006°19'816.6
2019-Aug-17 06:00N 58°03' W 006°07'815.4
2019-Aug-17 05:30N 58°09' W 005°57'815.9
2019-Aug-17 05:00N 58°15' W 005°47'816.0
2019-Aug-17 04:30N 58°20' W 005°37'815.6
2019-Aug-17 04:00N 58°26' W 005°27'816.5
2019-Aug-17 03:30N 58°32' W 005°16'816.7
2019-Aug-17 03:01N 58°38' W 005°05'261536.4
2019-Aug-17 03:00N 58°18' W 005°36'3369.2 160 / 16989.027.0
2019-Aug-17 02:31N 58°41' W 004°50'917.3
2019-Aug-17 02:00N 58°42' W 004°33'8673.1
2019-Aug-17 02:00N 58°42' W 004°18'1 1.2 170 / 10887.010.8 15.015.014.0
2019-Aug-17 01:30N 58°42' W 004°17'816.6
2019-Aug-17 01:00N 58°42' W 004°01'917.6
2019-Aug-17 00:30N 58°42' W 003°44'917.4
2019-Aug-17 00:00N 58°43' W 003°28'816.3
2019-Aug-16 23:30N 58°43' W 003°12'612.4
2019-Aug-16 23:01N 58°41' W 003°00'714.1
2019-Aug-16 22:30N 58°34' W 002°59'816.1
2019-Aug-16 22:00N 58°26' W 002°59'2016.5
2019-Aug-16 20:49N 58°09' W 003°17'1618.7
2019-Aug-16 20:00N 57°54' W 003°24'29 3.6 250 / 7989.0 0.3 19.0 4.7
2019-Aug-16 12:00N 57°36' W 004°06'0 0.0 170 / 15991.010.8 19.019.016.0
2019-Aug-16 10:00N 57°36' W 004°06'0 0.0 150 / 12992.0 0.3 17.0 7.1
2019-Aug-16 06:00N 57°36' W 004°06'35771.5 170 / 7998.010.8 15.012.016.0
2019-Aug-16 01:00N 51°42' W 002°42'362190.1 170 / 241003.0 5.4 15.015.016.0
2019-Aug-15 23:05N 57°43' W 001°54'113.3
2019-Aug-15 23:00N 57°42' W 001°53'3183.0
2019-Aug-15 23:00N 57°42' W 001°48'510.9 180 / 161007.010.8 15.015.014.0
2019-Aug-15 22:30N 57°37' W 001°45'713.3
2019-Aug-15 22:00N 57°31' W 001°39'1088656.0
2019-Aug-15 22:00N 57°30' E 001°42'105217.4 150 / 171006.0 0.3 16.0 2.9
2019-Aug-15 21:30N 57°25' W 001°34'713.7
2019-Aug-15 21:00N 57°19' W 001°28'813.8
2019-Aug-15 20:28N 57°12' W 001°22'714.2
2019-Aug-15 20:00N 57°06' W 001°16'5418.1
2019-Aug-15 17:00N 56°18' W 000°30'8514.2 310 / 161006.010.8 17.010.717.0
2019-Aug-15 11:00N 55°00' E 000°30'5120.8 270 / 341002.010.8 18.018.019.0
2019-Aug-15 08:34N 54°16' E 001°14'117.5
2019-Aug-15 08:30N 54°15' E 001°15'917.4
2019-Aug-15 08:00N 54°08' E 001°22'917.0
2019-Aug-15 07:30N 54°00' E 001°28'816.8
2019-Aug-15 07:00N 53°53' E 001°34'714.6
2019-Aug-15 06:30N 53°48' E 001°44'815.4
2019-Aug-15 06:00N 53°45' E 001°56'2512.5
2019-Aug-15 04:00N 53°30' E 002°30'3118.6 240 / 331004.027.0
2019-Aug-15 02:20N 52°60' E 002°40'819.3
2019-Aug-15 01:56N 52°52' E 002°40'918.8
2019-Aug-15 01:29N 52°43' E 002°40'53108.2
2019-Aug-15 01:00N 53°36' E 002°36'71155.6 230 / 211004.0 5.4 18.018.019.0
2019-Aug-15 00:32N 52°25' E 002°41'118.6
2019-Aug-15 00:30N 52°25' E 002°41'3120.5
2019-Aug-14 23:00N 51°54' E 002°36'1011.9 220 / 301008.010.8 18.018.019.0
2019-Aug-14 22:07N 51°44' E 002°33'217.6
2019-Aug-14 22:00N 51°42' E 002°31'8516.8
2019-Aug-14 22:00N 51°36' E 002°24'2 3.1 210 / 301008.0 0.3 16.016.0
2019-Aug-14 21:30N 51°36' E 002°22'816.6
2019-Aug-14 21:00N 51°30' E 002°13'816.3
2019-Aug-14 20:30N 51°24' E 002°04'816.1
2019-Aug-14 20:00N 51°18' E 001°55'816.0
2019-Aug-14 19:30N 51°12' E 001°47'815.8
2019-Aug-14 19:00N 51°05' E 001°39'815.0
2019-Aug-14 18:30N 51°02' E 001°29'713.9
2019-Aug-14 18:00N 51°06' E 001°21'1 1.6
2019-Aug-14 17:30N 51°07' E 001°19'0 0.0
2019-Aug-14 16:53N 51°07' E 001°19'0 0.0
2019-Aug-14 16:28N 51°07' E 001°19'0 0.0
2019-Aug-14 16:00N 51°07' E 001°19'1139.2
2019-Aug-14 16:00N 51°06' E 001°18'1 2.4 190 / 251010.010.8 18.015.319.0
2019-Aug-14 15:30N 51°07' E 001°19'0 0.0
2019-Aug-14 15:00N 51°07' E 001°19'0 0.0
2019-Aug-14 14:29N 51°07' E 001°19'0 0.0
2019-Aug-14 13:58N 51°07' E 001°19'0 0.0
2019-Aug-14 13:30N 51°07' E 001°19'0 0.0
2019-Aug-14 13:00N 51°07' E 001°19'0 0.0
2019-Aug-14 12:25N 51°07' E 001°19'0 0.0
2019-Aug-14 12:00N 51°07' E 001°19'0 0.0
2019-Aug-14 11:30N 51°07' E 001°19'1 2.3
2019-Aug-14 11:00N 51°06' E 001°18'115.9 190 / 301013.0 5.4 18.018.019.0
2019-Aug-14 10:55N 51°07' E 001°19'0 0.0
2019-Aug-14 10:28N 51°07' E 001°19'0 0.0
2019-Aug-14 09:55N 51°07' E 001°19'0 0.0
2019-Aug-14 09:28N 51°07' E 001°19'0 0.0
2019-Aug-14 08:58N 51°07' E 001°19'0 0.0
2019-Aug-14 08:22N 51°07' E 001°19'1 3.1
2019-Aug-14 08:00N 51°06' E 001°18'115.8 200 / 181015.0 0.3 16.010.4
2019-Aug-14 07:55N 51°07' E 001°19'0 0.0
2019-Aug-14 07:28N 51°07' E 001°19'0 0.0
2019-Aug-14 07:00N 51°07' E 001°19'0 0.0
2019-Aug-14 06:30N 51°07' E 001°19'0 0.0
2019-Aug-14 06:00N 51°07' E 001°19'0 0.2
2019-Aug-14 05:30N 51°07' E 001°20'4 7.0
2019-Aug-14 05:00N 51°08' E 001°25'611.6
2019-Aug-14 04:30N 51°08' E 001°34'713.1
2019-Aug-14 04:00N 51°12' E 001°42'10645.2
2019-Aug-14 04:00N 51°06' E 001°30'1633.5 210 / 161016.010.8 17.013.818.0
2019-Aug-14 03:30N 51°18' E 001°48'713.6
2019-Aug-14 03:00N 51°24' E 001°53'713.5
2019-Aug-14 02:30N 51°30' E 001°58'713.7
2019-Aug-14 02:00N 51°35' E 002°05'713.8
2019-Aug-14 01:30N 51°40' E 002°12'713.9
2019-Aug-14 01:00N 51°45' E 002°20'713.9
2019-Aug-14 00:30N 51°50' E 002°28'713.7
2019-Aug-14 00:00N 51°55' E 002°36'4265.9
2019-Aug-14 00:00N 51°54' E 002°42'612.0 240 / 251015.010.8 18.018.019.0
2019-Aug-13 23:28N 52°00' E 002°44'713.9
2019-Aug-13 23:00N 52°05' E 002°52'813.9
2019-Aug-13 22:27N 52°10' E 003°00'613.8
2019-Aug-13 22:00N 52°14' E 003°08'714.0
2019-Aug-13 21:30N 52°18' E 003°17'714.1
2019-Aug-13 21:00N 52°22' E 003°27'7417.0
2019-Aug-13 21:00N 52°18' E 003°18'1428.7 170 / 41015.0 0.3 16.0-0.5
2019-Aug-13 20:31N 52°25' E 003°37'714.3
2019-Aug-13 20:00N 52°29' E 003°48'714.0
2019-Aug-13 19:30N 52°31' E 003°58'714.6
2019-Aug-13 19:00N 52°31' E 004°10'714.6
2019-Aug-13 18:31N 52°30' E 004°22'612.5
2019-Aug-13 18:01N 52°28' E 004°32'4251.1
2019-Aug-13 18:00N 52°24' E 004°30'611.7 220 / 101009.027.0 17.0
2019-Aug-13 17:31N 52°28' E 004°36'0 0.5
2019-Aug-13 17:01N 52°28' E 004°37'2 4.3
2019-Aug-13 16:30N 52°27' E 004°40'4 7.4
2019-Aug-13 16:01N 52°26' E 004°46'4 7.4
2019-Aug-13 15:31N 52°25' E 004°52'3 5.8
2019-Aug-13 15:01N 52°23' E 004°55'0 0.1
2019-Aug-13 14:29N 52°23' E 004°55'0 0.0
2019-Aug-13 13:59N 52°23' E 004°55'0 0.0
2019-Aug-13 13:29N 52°23' E 004°55'0 0.0
2019-Aug-13 13:01N 52°23' E 004°55'0 0.0
2019-Aug-13 12:28N 52°23' E 004°55'5 9.9
2019-Aug-13 12:00N 52°18' E 004°54'5204.2 210 / 181015.010.8 17.017.020.0
2019-Aug-13 11:58N 52°23' E 004°55'0 0.0
2019-Aug-13 11:30N 52°23' E 004°55'0 0.0
2019-Aug-13 10:59N 52°23' E 004°55'0 0.0
2019-Aug-13 10:29N 52°23' E 004°55'0 0.0
2019-Aug-13 10:01N 52°23' E 004°55'0 0.0
2019-Aug-13 09:30N 52°23' E 004°55'0 0.0
2019-Aug-13 09:00N 52°23' E 004°55'0 0.0
2019-Aug-13 08:30N 52°23' E 004°55'0 0.0
2019-Aug-13 07:59N 52°23' E 004°55'0 0.0
2019-Aug-13 07:30N 52°23' E 004°55'0 0.0
2019-Aug-13 06:58N 52°23' E 004°55'0 0.0
2019-Aug-13 06:26N 52°23' E 004°55'510.6
2019-Aug-13 06:00N 52°18' E 004°54'5259.9 240 / 51014.0 0.3 18.0 5.8
2019-Aug-13 05:58N 52°23' E 004°55'0 0.0
2019-Aug-13 05:25N 52°23' E 004°55'0 0.0
2019-Aug-13 04:58N 52°23' E 004°55'1 1.1
2019-Aug-13 04:30N 52°23' E 004°56'1 2.9
2019-Aug-13 04:01N 52°24' E 004°54'4 7.6
2019-Aug-13 03:31N 52°25' E 004°48'4 8.4
2019-Aug-13 03:01N 52°27' E 004°42'4257.3
2019-Aug-13 03:00N 52°24' E 004°36'4 8.4 200 / 41014.010.8 15.013.222.0
2019-Aug-13 02:31N 52°28' E 004°37'1 1.4
2019-Aug-13 01:30N 52°28' E 004°35'611.2
2019-Aug-13 01:01N 52°29' E 004°25'3 5.0
2019-Aug-13 00:31N 52°30' E 004°22'1 3.0
2019-Aug-13 00:00N 52°30' E 004°24'2 5.0
2019-Aug-12 23:31N 52°29' E 004°21'4 7.9
2019-Aug-12 23:00N 52°29' E 004°14'611.0
2019-Aug-12 22:30N 52°32' E 004°07'612.8
2019-Aug-12 22:01N 52°38' E 004°03'713.1
2019-Aug-12 21:30N 52°45' E 004°00'5 9.0
2019-Aug-12 21:00N 52°42' E 003°54'3022.0 230 / 101003.0 0.3 15.0 4.3
2019-Aug-12 19:39N 53°07' E 004°20'318.7
2019-Aug-12 19:30N 53°09' E 004°23'6819.3
2019-Aug-12 16:00N 54°12' E 005°06'3517.4 290 / 211009.010.8 17.015.319.0
2019-Aug-12 14:00N 54°42' E 005°36'13819.7 240 / 221009.010.8 17.017.018.0
2019-Aug-12 07:00N 56°42' E 007°36'1714.9 230 / 341003.0 0.3 15.013.2
2019-Aug-12 05:51N 56°57' E 007°51'617.8
2019-Aug-12 05:30N 57°02' E 007°57'917.9
2019-Aug-12 05:00N 57°09' E 008°07'41321.9
2019-Aug-12 05:00N 57°12' E 008°12'611.0 200 / 301003.010.8 18.016.318.0
2019-Aug-12 04:29N 57°16' E 008°18'918.0
2019-Aug-12 04:00N 57°21' E 008°33'918.3
2019-Aug-12 03:30N 57°25' E 008°48'1018.4
2019-Aug-12 02:59N 57°29' E 009°03'918.3
2019-Aug-12 02:30N 57°32' E 009°19'918.4
2019-Aug-12 02:00N 57°36' E 009°34'1018.4
2019-Aug-12 01:28N 57°41' E 009°51'918.6
2019-Aug-12 01:00N 57°44' E 010°06'2141.3
2019-Aug-12 01:00N 57°42' E 010°06'1019.7 180 / 351005.010.8 17.017.018.0
2019-Aug-12 00:30N 57°47' E 010°22'917.5
2019-Aug-12 00:00N 57°49' E 010°38'918.1
2019-Aug-11 23:30N 57°45' E 010°54'1020.7
2019-Aug-11 23:00N 57°39' E 011°08'1020.9
2019-Aug-11 22:30N 57°31' E 011°21'1121.1
2019-Aug-11 22:00N 57°22' E 011°32'1121.6
2019-Aug-11 21:30N 57°12' E 011°37'1121.4
2019-Aug-11 21:00N 57°01' E 011°44'6563.3
2019-Aug-11 21:00N 57°06' E 011°36'5522.3 230 / 271007.0 0.3 19.0 7.3
2019-Aug-11 18:32N 56°15' E 012°13'119.8
2019-Aug-11 18:30N 56°15' E 012°14'1019.3
2019-Aug-11 18:00N 56°09' E 012°28'917.1
2019-Aug-11 17:30N 56°03' E 012°39'816.3
2019-Aug-11 17:00N 55°55' E 012°44'816.0
2019-Aug-11 16:30N 55°47' E 012°43'611.4
2019-Aug-11 16:00N 55°43' E 012°37'3165.3
2019-Aug-11 16:00N 55°42' E 012°42'3 6.3 250 / 161009.010.8 22.018.920.0
2019-Aug-11 15:28N 55°42' E 012°36'0 0.0
2019-Aug-11 14:58N 55°42' E 012°36'0 0.0
2019-Aug-11 14:28N 55°42' E 012°36'0 0.0
2019-Aug-11 14:00N 55°42' E 012°36'0 0.0
2019-Aug-11 13:30N 55°42' E 012°36'0 0.0
2019-Aug-11 12:59N 55°42' E 012°36'0 0.0
2019-Aug-11 12:28N 55°42' E 012°36'0 0.0
2019-Aug-11 12:00N 55°42' E 012°36'0 0.0
2019-Aug-11 11:30N 55°42' E 012°36'0 0.3
2019-Aug-11 11:00N 55°42' E 012°36'012.8 230 / 251009.010.8 21.021.019.0
2019-Aug-11 10:59N 55°42' E 012°36'0 0.0
2019-Aug-11 10:29N 55°42' E 012°36'0 0.0
2019-Aug-11 09:58N 55°42' E 012°36'0 0.0
2019-Aug-11 09:29N 55°42' E 012°36'0 0.0
2019-Aug-11 09:00N 55°42' E 012°36'0 0.0
2019-Aug-11 08:30N 55°42' E 012°36'0 0.0
2019-Aug-11 08:00N 55°42' E 012°36'0 9.3
2019-Aug-11 08:00N 55°42' E 012°36'0 0.3 250 / 141008.0 0.3 19.0 9.7
2019-Aug-11 07:30N 55°42' E 012°36'0 0.0
2019-Aug-11 07:00N 55°42' E 012°36'1 1.4
2019-Aug-11 06:30N 55°43' E 012°37'4 8.2
2019-Aug-11 06:00N 55°46' E 012°42'611.4
2019-Aug-11 05:30N 55°51' E 012°41'611.8
2019-Aug-11 05:00N 55°57' E 012°40'612.5
2019-Aug-11 04:30N 56°03' E 012°38'713.4
2019-Aug-11 03:59N 56°08' E 012°29'613.0
2019-Aug-11 03:30N 56°12' E 012°19'913.9
2019-Aug-11 02:51N 56°11' E 012°03'1314.7
2019-Aug-11 02:00N 56°06' E 011°42'4611.6 230 / 311005.010.8 20.020.021.0
2019-Aug-10 22:00N 55°27' E 010°56'1215.9
2019-Aug-10 21:16N 55°17' E 011°04'416.3
2019-Aug-10 21:00N 55°12' E 011°06'9883.7
2019-Aug-10 21:00N 55°18' E 011°18'1733.9 220 / 301006.0 0.3 21.0 7.6
2019-Aug-10 20:30N 55°04' E 011°02'816.2
2019-Aug-10 20:00N 54°57' E 010°57'918.5
2019-Aug-10 19:30N 54°48' E 010°52'917.5
2019-Aug-10 19:01N 54°40' E 010°60'1020.0
2019-Aug-10 18:31N 54°36' E 011°15'1020.3
2019-Aug-10 18:01N 54°30' E 011°30'1019.4
2019-Aug-10 17:31N 54°26' E 011°46'918.7
2019-Aug-10 17:00N 54°26' E 012°02'815.9
2019-Aug-10 16:30N 54°31' E 012°13'918.8
2019-Aug-10 16:01N 54°39' E 012°19'1615.5
2019-Aug-10 15:00N 54°48' E 012°42'1624.9 230 / 251006.010.8 22.018.920.0
2019-Aug-10 14:20N 54°53' E 013°09'3719.8
2019-Aug-10 12:27N 55°07' E 014°09'920.2
2019-Aug-10 12:00N 55°15' E 014°18'1719.9
2019-Aug-10 11:09N 55°27' E 014°38'320.0
2019-Aug-10 11:01N 55°29' E 014°42'3206.8
2019-Aug-10 11:00N 55°30' E 014°48'713.7 200 / 201005.010.8 21.021.020.0
2019-Aug-10 10:30N 55°33' E 014°58'1020.4
2019-Aug-10 10:01N 55°38' E 015°14'  

Dump ship's entire track history